sensor_id;sensor_type;location;lat;lon;timestamp;P1;durP1;ratioP1;P2;durP2;ratioP2
60318;SDS011;46163;52.306;5.634;2023-04-10T00:00:32;1.70;;;1.60;;
60318;SDS011;46163;52.306;5.634;2023-04-10T00:02:58;1.73;;;1.63;;
60318;SDS011;46163;52.306;5.634;2023-04-10T00:05:26;1.70;;;1.60;;
60318;SDS011;46163;52.306;5.634;2023-04-10T00:07:52;1.70;;;1.60;;
60318;SDS011;46163;52.306;5.634;2023-04-10T00:10:18;1.92;;;1.77;;
60318;SDS011;46163;52.306;5.634;2023-04-10T00:12:43;1.77;;;1.67;;
60318;SDS011;46163;52.306;5.634;2023-04-10T00:15:10;1.77;;;1.67;;
60318;SDS011;46163;52.306;5.634;2023-04-10T00:17:35;1.63;;;1.52;;
60318;SDS011;46163;52.306;5.634;2023-04-10T00:20:01;1.85;;;1.60;;
60318;SDS011;46163;52.306;5.634;2023-04-10T00:22:28;2.00;;;1.80;;
60318;SDS011;46163;52.306;5.634;2023-04-10T00:24:53;2.00;;;1.75;;
60318;SDS011;46163;52.306;5.634;2023-04-10T00:27:19;2.00;;;1.80;;
60318;SDS011;46163;52.306;5.634;2023-04-10T00:29:44;1.80;;;1.70;;
60318;SDS011;46163;52.306;5.634;2023-04-10T00:32:10;1.88;;;1.77;;
60318;SDS011;46163;52.306;5.634;2023-04-10T00:34:35;1.92;;;1.80;;
60318;SDS011;46163;52.306;5.634;2023-04-10T00:37:00;1.83;;;1.73;;
60318;SDS011;46163;52.306;5.634;2023-04-10T00:39:26;2.08;;;1.70;;
60318;SDS011;46163;52.306;5.634;2023-04-10T00:41:51;1.50;;;1.40;;
60318;SDS011;46163;52.306;5.634;2023-04-10T00:44:17;2.08;;;1.88;;
60318;SDS011;46163;52.306;5.634;2023-04-10T00:46:42;2.42;;;2.00;;
60318;SDS011;46163;52.306;5.634;2023-04-10T00:49:08;2.05;;;1.90;;
60318;SDS011;46163;52.306;5.634;2023-04-10T00:51:35;1.95;;;1.83;;
60318;SDS011;46163;52.306;5.634;2023-04-10T00:54:01;2.00;;;1.80;;
60318;SDS011;46163;52.306;5.634;2023-04-10T00:56:31;2.30;;;1.60;;
60318;SDS011;46163;52.306;5.634;2023-04-10T00:58:56;1.63;;;1.52;;
60318;SDS011;46163;52.306;5.634;2023-04-10T01:01:22;2.03;;;1.83;;
60318;SDS011;46163;52.306;5.634;2023-04-10T01:03:47;2.08;;;1.70;;
60318;SDS011;46163;52.306;5.634;2023-04-10T01:06:32;1.90;;;1.80;;
60318;SDS011;46163;52.306;5.634;2023-04-10T01:09:16;1.90;;;1.70;;
60318;SDS011;46163;52.306;5.634;2023-04-10T01:11:52;1.95;;;1.73;;
60318;SDS011;46163;52.306;5.634;2023-04-10T01:17:00;1.77;;;1.67;;
60318;SDS011;46163;52.306;5.634;2023-04-10T01:22:33;1.85;;;1.70;;
60318;SDS011;46163;52.306;5.634;2023-04-10T01:25:04;1.90;;;1.80;;
60318;SDS011;46163;52.306;5.634;2023-04-10T01:27:58;1.88;;;1.70;;
60318;SDS011;46163;52.306;5.634;2023-04-10T01:30:31;2.13;;;1.70;;
60318;SDS011;46163;52.306;5.634;2023-04-10T01:33:00;1.77;;;1.67;;
60318;SDS011;46163;52.306;5.634;2023-04-10T01:35:27;1.80;;;1.70;;
60318;SDS011;46163;52.306;5.634;2023-04-10T01:37:55;2.05;;;1.80;;
60318;SDS011;46163;52.306;5.634;2023-04-10T01:40:23;2.08;;;1.90;;
60318;SDS011;46163;52.306;5.634;2023-04-10T01:42:52;1.90;;;1.80;;
60318;SDS011;46163;52.306;5.634;2023-04-10T01:45:24;1.88;;;1.70;;
60318;SDS011;46163;52.306;5.634;2023-04-10T01:47:53;1.80;;;1.70;;
60318;SDS011;46163;52.306;5.634;2023-04-10T01:50:20;2.10;;;1.90;;
60318;SDS011;46163;52.306;5.634;2023-04-10T01:52:48;1.90;;;1.80;;
60318;SDS011;46163;52.306;5.634;2023-04-10T01:55:15;2.28;;;1.80;;
60318;SDS011;46163;52.306;5.634;2023-04-10T01:57:42;1.73;;;1.63;;
60318;SDS011;46163;52.306;5.634;2023-04-10T02:00:08;2.00;;;1.80;;
60318;SDS011;46163;52.306;5.634;2023-04-10T02:02:36;2.00;;;1.80;;
60318;SDS011;46163;52.306;5.634;2023-04-10T02:05:02;2.03;;;1.83;;
60318;SDS011;46163;52.306;5.634;2023-04-10T02:12:53;1.60;;;1.50;;
60318;SDS011;46163;52.306;5.634;2023-04-10T02:15:23;1.88;;;1.67;;
60318;SDS011;46163;52.306;5.634;2023-04-10T02:17:53;2.40;;;2.00;;
60318;SDS011;46163;52.306;5.634;2023-04-10T02:20:20;1.90;;;1.80;;
60318;SDS011;46163;52.306;5.634;2023-04-10T02:22:47;1.95;;;1.80;;
60318;SDS011;46163;52.306;5.634;2023-04-10T02:25:13;1.77;;;1.67;;
60318;SDS011;46163;52.306;5.634;2023-04-10T02:27:40;1.77;;;1.67;;
60318;SDS011;46163;52.306;5.634;2023-04-10T02:30:06;1.60;;;1.50;;
60318;SDS011;46163;52.306;5.634;2023-04-10T02:32:32;1.70;;;1.60;;
60318;SDS011;46163;52.306;5.634;2023-04-10T02:34:58;1.70;;;1.60;;
60318;SDS011;46163;52.306;5.634;2023-04-10T02:37:24;1.60;;;1.50;;
60318;SDS011;46163;52.306;5.634;2023-04-10T02:39:50;1.58;;;1.48;;
60318;SDS011;46163;52.306;5.634;2023-04-10T02:42:16;1.67;;;1.50;;
60318;SDS011;46163;52.306;5.634;2023-04-10T02:44:42;1.70;;;1.60;;
60318;SDS011;46163;52.306;5.634;2023-04-10T02:47:07;1.35;;;1.30;;
60318;SDS011;46163;52.306;5.634;2023-04-10T02:49:33;1.65;;;1.55;;
60318;SDS011;46163;52.306;5.634;2023-04-10T02:51:59;1.60;;;1.50;;
60318;SDS011;46163;52.306;5.634;2023-04-10T02:54:25;1.60;;;1.50;;
60318;SDS011;46163;52.306;5.634;2023-04-10T02:56:51;1.50;;;1.40;;
60318;SDS011;46163;52.306;5.634;2023-04-10T02:59:16;1.60;;;1.50;;
60318;SDS011;46163;52.306;5.634;2023-04-10T03:01:42;1.40;;;1.40;;
60318;SDS011;46163;52.306;5.634;2023-04-10T03:04:08;1.58;;;1.48;;
60318;SDS011;46163;52.306;5.634;2023-04-10T03:06:33;1.58;;;1.48;;
60318;SDS011;46163;52.306;5.634;2023-04-10T03:08:59;1.65;;;1.55;;
60318;SDS011;46163;52.306;5.634;2023-04-10T03:11:24;1.60;;;1.50;;
60318;SDS011;46163;52.306;5.634;2023-04-10T03:13:50;1.67;;;1.58;;
60318;SDS011;46163;52.306;5.634;2023-04-10T03:16:15;1.33;;;1.27;;
60318;SDS011;46163;52.306;5.634;2023-04-10T03:18:44;1.30;;;1.30;;
60318;SDS011;46163;52.306;5.634;2023-04-10T03:21:10;1.60;;;1.50;;
60318;SDS011;46163;52.306;5.634;2023-04-10T03:23:35;1.25;;;1.20;;
60318;SDS011;46163;52.306;5.634;2023-04-10T03:26:01;1.42;;;1.38;;
60318;SDS011;46163;52.306;5.634;2023-04-10T03:28:28;1.30;;;1.30;;
60318;SDS011;46163;52.306;5.634;2023-04-10T03:30:54;1.65;;;1.55;;
60318;SDS011;46163;52.306;5.634;2023-04-10T03:33:20;1.40;;;1.30;;
60318;SDS011;46163;52.306;5.634;2023-04-10T03:35:46;1.20;;;1.20;;
60318;SDS011;46163;52.306;5.634;2023-04-10T03:38:11;1.33;;;1.33;;
60318;SDS011;46163;52.306;5.634;2023-04-10T03:40:37;1.40;;;1.30;;
60318;SDS011;46163;52.306;5.634;2023-04-10T03:43:02;1.35;;;1.30;;
60318;SDS011;46163;52.306;5.634;2023-04-10T03:45:27;1.08;;;1.08;;
60318;SDS011;46163;52.306;5.634;2023-04-10T03:47:53;1.40;;;1.30;;
60318;SDS011;46163;52.306;5.634;2023-04-10T03:50:18;1.20;;;1.20;;
60318;SDS011;46163;52.306;5.634;2023-04-10T03:52:44;1.35;;;1.25;;
60318;SDS011;46163;52.306;5.634;2023-04-10T03:55:10;1.50;;;1.20;;
60318;SDS011;46163;52.306;5.634;2023-04-10T03:57:35;1.20;;;1.10;;
60318;SDS011;46163;52.306;5.634;2023-04-10T04:00:01;1.30;;;1.30;;
60318;SDS011;46163;52.306;5.634;2023-04-10T04:02:27;1.10;;;1.10;;
60318;SDS011;46163;52.306;5.634;2023-04-10T04:04:53;0.90;;;0.90;;
60318;SDS011;46163;52.306;5.634;2023-04-10T04:07:21;1.00;;;1.00;;
60318;SDS011;46163;52.306;5.634;2023-04-10T04:12:12;1.00;;;1.00;;
60318;SDS011;46163;52.306;5.634;2023-04-10T04:14:37;1.05;;;1.05;;
60318;SDS011;46163;52.306;5.634;2023-04-10T04:17:03;1.25;;;1.25;;
60318;SDS011;46163;52.306;5.634;2023-04-10T04:19:28;1.15;;;1.15;;
60318;SDS011;46163;52.306;5.634;2023-04-10T04:21:56;1.15;;;1.13;;
60318;SDS011;46163;52.306;5.634;2023-04-10T04:24:21;2.03;;;1.25;;
60318;SDS011;46163;52.306;5.634;2023-04-10T04:26:47;1.17;;;1.17;;
60318;SDS011;46163;52.306;5.634;2023-04-10T04:29:15;0.90;;;0.90;;
60318;SDS011;46163;52.306;5.634;2023-04-10T04:31:40;1.00;;;1.00;;
60318;SDS011;46163;52.306;5.634;2023-04-10T04:34:06;1.00;;;1.00;;
60318;SDS011;46163;52.306;5.634;2023-04-10T04:36:32;1.00;;;1.00;;
60318;SDS011;46163;52.306;5.634;2023-04-10T04:38:57;1.10;;;1.10;;
60318;SDS011;46163;52.306;5.634;2023-04-10T04:41:23;1.20;;;1.20;;
60318;SDS011;46163;52.306;5.634;2023-04-10T04:43:48;1.05;;;1.05;;
60318;SDS011;46163;52.306;5.634;2023-04-10T04:46:15;1.00;;;1.00;;
60318;SDS011;46163;52.306;5.634;2023-04-10T04:48:40;1.02;;;1.00;;
60318;SDS011;46163;52.306;5.634;2023-04-10T04:51:08;1.10;;;1.10;;
60318;SDS011;46163;52.306;5.634;2023-04-10T04:53:33;1.08;;;1.08;;
60318;SDS011;46163;52.306;5.634;2023-04-10T04:55:59;0.90;;;0.90;;
60318;SDS011;46163;52.306;5.634;2023-04-10T04:58:24;1.10;;;1.10;;
60318;SDS011;46163;52.306;5.634;2023-04-10T05:00:50;0.95;;;0.95;;
60318;SDS011;46163;52.306;5.634;2023-04-10T05:03:16;1.10;;;1.10;;
60318;SDS011;46163;52.306;5.634;2023-04-10T05:05:42;1.10;;;1.10;;
60318;SDS011;46163;52.306;5.634;2023-04-10T05:08:08;1.08;;;1.08;;
60318;SDS011;46163;52.306;5.634;2023-04-10T05:10:35;1.10;;;1.10;;
60318;SDS011;46163;52.306;5.634;2023-04-10T05:13:01;1.10;;;1.10;;
60318;SDS011;46163;52.306;5.634;2023-04-10T05:15:26;1.10;;;1.10;;
60318;SDS011;46163;52.306;5.634;2023-04-10T05:17:52;0.95;;;0.95;;
60318;SDS011;46163;52.306;5.634;2023-04-10T05:20:18;0.95;;;0.95;;
60318;SDS011;46163;52.306;5.634;2023-04-10T05:22:43;1.05;;;1.05;;
60318;SDS011;46163;52.306;5.634;2023-04-10T05:25:09;1.20;;;1.20;;
60318;SDS011;46163;52.306;5.634;2023-04-10T05:27:35;1.10;;;1.10;;
60318;SDS011;46163;52.306;5.634;2023-04-10T05:30:00;1.00;;;1.00;;
60318;SDS011;46163;52.306;5.634;2023-04-10T05:32:27;0.95;;;0.95;;
60318;SDS011;46163;52.306;5.634;2023-04-10T05:34:53;0.90;;;0.90;;
60318;SDS011;46163;52.306;5.634;2023-04-10T05:37:18;0.90;;;0.90;;
60318;SDS011;46163;52.306;5.634;2023-04-10T05:39:44;1.00;;;1.00;;
60318;SDS011;46163;52.306;5.634;2023-04-10T05:42:09;1.00;;;1.00;;
60318;SDS011;46163;52.306;5.634;2023-04-10T05:44:37;1.17;;;1.10;;
60318;SDS011;46163;52.306;5.634;2023-04-10T05:47:03;0.90;;;0.90;;
60318;SDS011;46163;52.306;5.634;2023-04-10T05:49:28;0.90;;;0.90;;
60318;SDS011;46163;52.306;5.634;2023-04-10T05:51:54;1.02;;;1.02;;
60318;SDS011;46163;52.306;5.634;2023-04-10T05:54:19;0.90;;;0.90;;
60318;SDS011;46163;52.306;5.634;2023-04-10T05:56:45;1.10;;;1.10;;
60318;SDS011;46163;52.306;5.634;2023-04-10T05:59:10;1.00;;;1.00;;
60318;SDS011;46163;52.306;5.634;2023-04-10T06:01:37;0.80;;;0.80;;
60318;SDS011;46163;52.306;5.634;2023-04-10T06:04:03;1.00;;;1.00;;
60318;SDS011;46163;52.306;5.634;2023-04-10T06:06:29;1.10;;;1.10;;
60318;SDS011;46163;52.306;5.634;2023-04-10T06:08:55;1.00;;;1.00;;
60318;SDS011;46163;52.306;5.634;2023-04-10T06:11:20;1.00;;;1.00;;
60318;SDS011;46163;52.306;5.634;2023-04-10T06:13:46;0.73;;;0.73;;
60318;SDS011;46163;52.306;5.634;2023-04-10T06:16:12;0.90;;;0.90;;
60318;SDS011;46163;52.306;5.634;2023-04-10T06:18:39;1.23;;;1.20;;
60318;SDS011;46163;52.306;5.634;2023-04-10T06:21:05;1.05;;;1.05;;
60318;SDS011;46163;52.306;5.634;2023-04-10T06:23:31;0.90;;;0.90;;
60318;SDS011;46163;52.306;5.634;2023-04-10T06:25:56;0.90;;;0.90;;
60318;SDS011;46163;52.306;5.634;2023-04-10T06:28:24;1.00;;;1.00;;
60318;SDS011;46163;52.306;5.634;2023-04-10T06:30:50;0.95;;;0.95;;
60318;SDS011;46163;52.306;5.634;2023-04-10T06:33:15;1.10;;;1.10;;
60318;SDS011;46163;52.306;5.634;2023-04-10T06:35:41;1.00;;;1.00;;
60318;SDS011;46163;52.306;5.634;2023-04-10T06:38:06;1.00;;;1.00;;
60318;SDS011;46163;52.306;5.634;2023-04-10T06:40:32;0.90;;;0.90;;
60318;SDS011;46163;52.306;5.634;2023-04-10T06:42:58;0.80;;;0.80;;
60318;SDS011;46163;52.306;5.634;2023-04-10T06:45:25;0.93;;;0.93;;
60318;SDS011;46163;52.306;5.634;2023-04-10T06:47:51;0.90;;;0.90;;
60318;SDS011;46163;52.306;5.634;2023-04-10T06:50:16;1.10;;;1.10;;
60318;SDS011;46163;52.306;5.634;2023-04-10T06:52:48;1.08;;;1.08;;
60318;SDS011;46163;52.306;5.634;2023-04-10T06:55:13;0.77;;;0.77;;
60318;SDS011;46163;52.306;5.634;2023-04-10T06:57:39;1.10;;;1.10;;
60318;SDS011;46163;52.306;5.634;2023-04-10T07:00:05;0.98;;;0.98;;
60318;SDS011;46163;52.306;5.634;2023-04-10T07:02:31;0.85;;;0.85;;
60318;SDS011;46163;52.306;5.634;2023-04-10T07:04:56;0.90;;;0.90;;
60318;SDS011;46163;52.306;5.634;2023-04-10T07:07:22;0.82;;;0.82;;
60318;SDS011;46163;52.306;5.634;2023-04-10T07:09:47;0.75;;;0.75;;
60318;SDS011;46163;52.306;5.634;2023-04-10T07:12:13;0.93;;;0.93;;
60318;SDS011;46163;52.306;5.634;2023-04-10T07:14:38;0.90;;;0.90;;
60318;SDS011;46163;52.306;5.634;2023-04-10T07:17:04;0.80;;;0.80;;
60318;SDS011;46163;52.306;5.634;2023-04-10T07:19:29;0.90;;;0.90;;
60318;SDS011;46163;52.306;5.634;2023-04-10T07:21:55;0.85;;;0.85;;
60318;SDS011;46163;52.306;5.634;2023-04-10T07:24:21;0.90;;;0.90;;
60318;SDS011;46163;52.306;5.634;2023-04-10T07:26:46;0.70;;;0.70;;
60318;SDS011;46163;52.306;5.634;2023-04-10T07:29:12;0.70;;;0.70;;
60318;SDS011;46163;52.306;5.634;2023-04-10T07:31:38;1.00;;;1.00;;
60318;SDS011;46163;52.306;5.634;2023-04-10T07:34:04;1.00;;;1.00;;
60318;SDS011;46163;52.306;5.634;2023-04-10T07:36:29;0.90;;;0.90;;
60318;SDS011;46163;52.306;5.634;2023-04-10T07:38:55;0.93;;;0.93;;
60318;SDS011;46163;52.306;5.634;2023-04-10T07:41:21;0.80;;;0.80;;
60318;SDS011;46163;52.306;5.634;2023-04-10T07:43:48;0.70;;;0.70;;
60318;SDS011;46163;52.306;5.634;2023-04-10T07:46:14;1.35;;;1.00;;
60318;SDS011;46163;52.306;5.634;2023-04-10T07:48:40;0.90;;;0.90;;
60318;SDS011;46163;52.306;5.634;2023-04-10T07:54:04;0.80;;;0.80;;
60318;SDS011;46163;52.306;5.634;2023-04-10T07:56:30;0.93;;;0.93;;
60318;SDS011;46163;52.306;5.634;2023-04-10T07:58:57;1.05;;;1.05;;
60318;SDS011;46163;52.306;5.634;2023-04-10T08:01:24;0.85;;;0.85;;
60318;SDS011;46163;52.306;5.634;2023-04-10T08:03:50;0.60;;;0.60;;
60318;SDS011;46163;52.306;5.634;2023-04-10T08:06:15;0.80;;;0.80;;
60318;SDS011;46163;52.306;5.634;2023-04-10T08:08:41;0.90;;;0.90;;
60318;SDS011;46163;52.306;5.634;2023-04-10T08:11:07;1.02;;;1.02;;
60318;SDS011;46163;52.306;5.634;2023-04-10T08:13:52;0.90;;;0.90;;
60318;SDS011;46163;52.306;5.634;2023-04-10T08:16:21;0.90;;;0.90;;
60318;SDS011;46163;52.306;5.634;2023-04-10T08:18:48;1.10;;;1.10;;
60318;SDS011;46163;52.306;5.634;2023-04-10T08:21:13;0.77;;;0.77;;
60318;SDS011;46163;52.306;5.634;2023-04-10T08:23:39;0.93;;;0.93;;
60318;SDS011;46163;52.306;5.634;2023-04-10T08:26:05;0.90;;;0.90;;
60318;SDS011;46163;52.306;5.634;2023-04-10T08:28:31;1.08;;;1.08;;
60318;SDS011;46163;52.306;5.634;2023-04-10T08:30:56;0.98;;;0.98;;
60318;SDS011;46163;52.306;5.634;2023-04-10T08:33:22;1.00;;;1.00;;
60318;SDS011;46163;52.306;5.634;2023-04-10T08:35:47;0.98;;;0.98;;
60318;SDS011;46163;52.306;5.634;2023-04-10T08:38:13;1.17;;;1.08;;
60318;SDS011;46163;52.306;5.634;2023-04-10T08:40:38;0.90;;;0.90;;
60318;SDS011;46163;52.306;5.634;2023-04-10T08:43:04;0.93;;;0.93;;
60318;SDS011;46163;52.306;5.634;2023-04-10T08:45:30;0.93;;;0.93;;
60318;SDS011;46163;52.306;5.634;2023-04-10T08:47:56;0.95;;;0.95;;
60318;SDS011;46163;52.306;5.634;2023-04-10T08:50:22;0.95;;;0.95;;
60318;SDS011;46163;52.306;5.634;2023-04-10T08:52:49;0.77;;;0.77;;
60318;SDS011;46163;52.306;5.634;2023-04-10T08:55:16;1.02;;;0.95;;
60318;SDS011;46163;52.306;5.634;2023-04-10T08:57:43;0.90;;;0.90;;
60318;SDS011;46163;52.306;5.634;2023-04-10T09:00:09;0.80;;;0.80;;
60318;SDS011;46163;52.306;5.634;2023-04-10T09:02:38;1.00;;;1.00;;
60318;SDS011;46163;52.306;5.634;2023-04-10T09:05:05;1.10;;;1.10;;
60318;SDS011;46163;52.306;5.634;2023-04-10T09:07:35;1.00;;;1.00;;
60318;SDS011;46163;52.306;5.634;2023-04-10T09:10:00;1.00;;;1.00;;
60318;SDS011;46163;52.306;5.634;2023-04-10T09:12:26;1.00;;;1.00;;
60318;SDS011;46163;52.306;5.634;2023-04-10T09:14:51;1.00;;;1.00;;
60318;SDS011;46163;52.306;5.634;2023-04-10T09:17:18;1.58;;;0.82;;
60318;SDS011;46163;52.306;5.634;2023-04-10T09:19:47;0.82;;;0.82;;
60318;SDS011;46163;52.306;5.634;2023-04-10T09:24:39;1.00;;;1.00;;
60318;SDS011;46163;52.306;5.634;2023-04-10T09:27:06;1.00;;;1.00;;
60318;SDS011;46163;52.306;5.634;2023-04-10T09:29:42;0.93;;;0.93;;
60318;SDS011;46163;52.306;5.634;2023-04-10T09:32:29;0.70;;;0.70;;
60318;SDS011;46163;52.306;5.634;2023-04-10T09:35:09;0.90;;;0.90;;
60318;SDS011;46163;52.306;5.634;2023-04-10T09:37:37;1.00;;;1.00;;
60318;SDS011;46163;52.306;5.634;2023-04-10T09:40:04;0.80;;;0.80;;
60318;SDS011;46163;52.306;5.634;2023-04-10T09:42:32;0.82;;;0.82;;
60318;SDS011;46163;52.306;5.634;2023-04-10T09:44:59;1.10;;;1.10;;
60318;SDS011;46163;52.306;5.634;2023-04-10T09:47:26;0.60;;;0.60;;
60318;SDS011;46163;52.306;5.634;2023-04-10T09:49:55;0.80;;;0.80;;
60318;SDS011;46163;52.306;5.634;2023-04-10T09:54:50;1.35;;;1.27;;
60318;SDS011;46163;52.306;5.634;2023-04-10T09:57:17;0.95;;;0.95;;
60318;SDS011;46163;52.306;5.634;2023-04-10T09:59:48;0.77;;;0.77;;
60318;SDS011;46163;52.306;5.634;2023-04-10T10:02:21;0.98;;;0.98;;
60318;SDS011;46163;52.306;5.634;2023-04-10T10:04:49;0.90;;;0.90;;
60318;SDS011;46163;52.306;5.634;2023-04-10T10:07:16;1.10;;;1.05;;
60318;SDS011;46163;52.306;5.634;2023-04-10T10:09:44;0.93;;;0.93;;
60318;SDS011;46163;52.306;5.634;2023-04-10T10:12:11;0.90;;;0.90;;
60318;SDS011;46163;52.306;5.634;2023-04-10T10:14:53;0.80;;;0.80;;
60318;SDS011;46163;52.306;5.634;2023-04-10T10:17:25;1.00;;;1.00;;
60318;SDS011;46163;52.306;5.634;2023-04-10T10:19:58;0.77;;;0.77;;
60318;SDS011;46163;52.306;5.634;2023-04-10T10:22:28;0.88;;;0.88;;
60318;SDS011;46163;52.306;5.634;2023-04-10T10:24:54;0.90;;;0.90;;
60318;SDS011;46163;52.306;5.634;2023-04-10T10:27:24;1.00;;;1.00;;
60318;SDS011;46163;52.306;5.634;2023-04-10T10:29:52;1.00;;;1.00;;
60318;SDS011;46163;52.306;5.634;2023-04-10T10:32:19;1.65;;;0.80;;
60318;SDS011;46163;52.306;5.634;2023-04-10T10:34:46;0.70;;;0.70;;
60318;SDS011;46163;52.306;5.634;2023-04-10T10:37:12;1.00;;;1.00;;
60318;SDS011;46163;52.306;5.634;2023-04-10T10:39:41;1.08;;;1.08;;
60318;SDS011;46163;52.306;5.634;2023-04-10T10:42:24;0.82;;;0.82;;
60318;SDS011;46163;52.306;5.634;2023-04-10T10:45:06;0.88;;;0.88;;
60318;SDS011;46163;52.306;5.634;2023-04-10T10:47:37;0.90;;;0.90;;
60318;SDS011;46163;52.306;5.634;2023-04-10T10:50:06;0.70;;;0.70;;
60318;SDS011;46163;52.306;5.634;2023-04-10T10:57:53;0.80;;;0.80;;
60318;SDS011;46163;52.306;5.634;2023-04-10T11:00:20;0.75;;;0.75;;
60318;SDS011;46163;52.306;5.634;2023-04-10T11:05:51;0.85;;;0.85;;
60318;SDS011;46163;52.306;5.634;2023-04-10T11:11:06;1.08;;;1.00;;
60318;SDS011;46163;52.306;5.634;2023-04-10T11:13:35;0.70;;;0.70;;
60318;SDS011;46163;52.306;5.634;2023-04-10T11:16:02;0.70;;;0.70;;
60318;SDS011;46163;52.306;5.634;2023-04-10T11:26:35;0.98;;;0.98;;
60318;SDS011;46163;52.306;5.634;2023-04-10T11:31:36;1.00;;;1.00;;
60318;SDS011;46163;52.306;5.634;2023-04-10T11:34:06;0.80;;;0.80;;
60318;SDS011;46163;52.306;5.634;2023-04-10T11:36:33;0.85;;;0.85;;
60318;SDS011;46163;52.306;5.634;2023-04-10T11:39:06;0.90;;;0.90;;
60318;SDS011;46163;52.306;5.634;2023-04-10T11:41:36;0.80;;;0.80;;
60318;SDS011;46163;52.306;5.634;2023-04-10T11:44:13;0.95;;;0.95;;
60318;SDS011;46163;52.306;5.634;2023-04-10T11:46:41;0.93;;;0.93;;
60318;SDS011;46163;52.306;5.634;2023-04-10T11:49:08;0.95;;;0.95;;
60318;SDS011;46163;52.306;5.634;2023-04-10T11:51:38;0.80;;;0.80;;
60318;SDS011;46163;52.306;5.634;2023-04-10T11:54:12;0.98;;;0.98;;
60318;SDS011;46163;52.306;5.634;2023-04-10T11:56:39;1.00;;;1.00;;
60318;SDS011;46163;52.306;5.634;2023-04-10T11:59:08;0.90;;;0.90;;
60318;SDS011;46163;52.306;5.634;2023-04-10T12:01:38;1.02;;;1.02;;
60318;SDS011;46163;52.306;5.634;2023-04-10T12:04:11;1.00;;;1.00;;
60318;SDS011;46163;52.306;5.634;2023-04-10T12:06:48;1.00;;;1.00;;
60318;SDS011;46163;52.306;5.634;2023-04-10T12:09:16;1.00;;;1.00;;
60318;SDS011;46163;52.306;5.634;2023-04-10T12:14:34;0.80;;;0.80;;
60318;SDS011;46163;52.306;5.634;2023-04-10T12:17:02;0.90;;;0.90;;
60318;SDS011;46163;52.306;5.634;2023-04-10T12:19:29;0.73;;;0.73;;
60318;SDS011;46163;52.306;5.634;2023-04-10T12:21:56;0.85;;;0.85;;
60318;SDS011;46163;52.306;5.634;2023-04-10T12:27:15;0.90;;;0.90;;
60318;SDS011;46163;52.306;5.634;2023-04-10T12:29:41;0.90;;;0.90;;
60318;SDS011;46163;52.306;5.634;2023-04-10T12:32:08;1.00;;;1.00;;
60318;SDS011;46163;52.306;5.634;2023-04-10T12:34:35;0.80;;;0.80;;
60318;SDS011;46163;52.306;5.634;2023-04-10T12:37:01;0.90;;;0.90;;
60318;SDS011;46163;52.306;5.634;2023-04-10T12:39:27;1.00;;;1.00;;
60318;SDS011;46163;52.306;5.634;2023-04-10T12:42:08;1.02;;;1.02;;
60318;SDS011;46163;52.306;5.634;2023-04-10T12:44:51;0.90;;;0.90;;
60318;SDS011;46163;52.306;5.634;2023-04-10T12:47:18;1.02;;;1.02;;
60318;SDS011;46163;52.306;5.634;2023-04-10T12:52:40;0.90;;;0.90;;
60318;SDS011;46163;52.306;5.634;2023-04-10T12:55:19;0.90;;;0.90;;
60318;SDS011;46163;52.306;5.634;2023-04-10T12:57:47;0.80;;;0.80;;
60318;SDS011;46163;52.306;5.634;2023-04-10T13:00:15;0.90;;;0.90;;
60318;SDS011;46163;52.306;5.634;2023-04-10T13:02:42;1.00;;;1.00;;
60318;SDS011;46163;52.306;5.634;2023-04-10T13:05:09;1.10;;;1.10;;
60318;SDS011;46163;52.306;5.634;2023-04-10T13:07:35;1.40;;;1.10;;
60318;SDS011;46163;52.306;5.634;2023-04-10T13:10:02;1.13;;;1.10;;
60318;SDS011;46163;52.306;5.634;2023-04-10T13:12:29;1.00;;;1.00;;
60318;SDS011;46163;52.306;5.634;2023-04-10T13:14:54;1.10;;;1.10;;
60318;SDS011;46163;52.306;5.634;2023-04-10T13:17:20;1.10;;;1.10;;
60318;SDS011;46163;52.306;5.634;2023-04-10T13:19:47;1.00;;;1.00;;
60318;SDS011;46163;52.306;5.634;2023-04-10T13:22:12;1.10;;;1.10;;
60318;SDS011;46163;52.306;5.634;2023-04-10T13:27:14;1.08;;;1.08;;
60318;SDS011;46163;52.306;5.634;2023-04-10T13:29:40;0.90;;;0.90;;
60318;SDS011;46163;52.306;5.634;2023-04-10T13:32:08;0.93;;;0.90;;
60318;SDS011;46163;52.306;5.634;2023-04-10T13:34:34;1.00;;;1.00;;
60318;SDS011;46163;52.306;5.634;2023-04-10T13:37:00;1.30;;;1.20;;
60318;SDS011;46163;52.306;5.634;2023-04-10T13:39:29;1.10;;;1.10;;
60318;SDS011;46163;52.306;5.634;2023-04-10T13:41:56;1.10;;;1.00;;
60318;SDS011;46163;52.306;5.634;2023-04-10T13:44:22;1.25;;;1.23;;
60318;SDS011;46163;52.306;5.634;2023-04-10T13:46:48;1.00;;;1.00;;
60318;SDS011;46163;52.306;5.634;2023-04-10T13:49:13;1.05;;;1.00;;
60318;SDS011;46163;52.306;5.634;2023-04-10T13:51:41;1.00;;;1.00;;
60318;SDS011;46163;52.306;5.634;2023-04-10T13:54:08;1.30;;;1.20;;
60318;SDS011;46163;52.306;5.634;2023-04-10T13:56:34;1.40;;;1.30;;
60318;SDS011;46163;52.306;5.634;2023-04-10T13:59:00;1.30;;;1.20;;
60318;SDS011;46163;52.306;5.634;2023-04-10T14:01:26;1.13;;;1.02;;
60318;SDS011;46163;52.306;5.634;2023-04-10T14:03:51;1.10;;;1.02;;
60318;SDS011;46163;52.306;5.634;2023-04-10T14:06:16;1.10;;;1.10;;
60318;SDS011;46163;52.306;5.634;2023-04-10T14:08:42;1.08;;;1.08;;
60318;SDS011;46163;52.306;5.634;2023-04-10T14:11:08;1.10;;;1.10;;
60318;SDS011;46163;52.306;5.634;2023-04-10T14:13:33;1.58;;;1.20;;
60318;SDS011;46163;52.306;5.634;2023-04-10T14:15:58;2.40;;;0.98;;
60318;SDS011;46163;52.306;5.634;2023-04-10T14:18:25;0.98;;;0.98;;
60318;SDS011;46163;52.306;5.634;2023-04-10T14:20:50;1.00;;;1.00;;
60318;SDS011;46163;52.306;5.634;2023-04-10T14:23:16;1.17;;;1.10;;
60318;SDS011;46163;52.306;5.634;2023-04-10T14:25:45;0.95;;;0.95;;
60318;SDS011;46163;52.306;5.634;2023-04-10T14:28:11;1.08;;;1.08;;
60318;SDS011;46163;52.306;5.634;2023-04-10T14:30:48;1.60;;;1.50;;
60318;SDS011;46163;52.306;5.634;2023-04-10T14:33:15;0.90;;;0.90;;
60318;SDS011;46163;52.306;5.634;2023-04-10T14:35:42;1.20;;;1.20;;
60318;SDS011;46163;52.306;5.634;2023-04-10T14:38:08;1.10;;;1.10;;
60318;SDS011;46163;52.306;5.634;2023-04-10T14:40:34;3.08;;;1.00;;
60318;SDS011;46163;52.306;5.634;2023-04-10T14:43:00;1.40;;;1.30;;
60318;SDS011;46163;52.306;5.634;2023-04-10T14:45:26;3.97;;;1.30;;
60318;SDS011;46163;52.306;5.634;2023-04-10T14:47:52;1.45;;;1.35;;
60318;SDS011;46163;52.306;5.634;2023-04-10T14:50:18;1.02;;;1.02;;
60318;SDS011;46163;52.306;5.634;2023-04-10T14:52:44;1.60;;;1.50;;
60318;SDS011;46163;52.306;5.634;2023-04-10T14:55:10;1.60;;;1.50;;
60318;SDS011;46163;52.306;5.634;2023-04-10T14:57:35;1.50;;;1.40;;
60318;SDS011;46163;52.306;5.634;2023-04-10T15:00:04;1.52;;;1.42;;
60318;SDS011;46163;52.306;5.634;2023-04-10T15:02:30;1.58;;;1.48;;
60318;SDS011;46163;52.306;5.634;2023-04-10T15:04:56;1.70;;;1.60;;
60318;SDS011;46163;52.306;5.634;2023-04-10T15:07:21;1.80;;;1.70;;
60318;SDS011;46163;52.306;5.634;2023-04-10T15:09:48;1.52;;;1.42;;
60318;SDS011;46163;52.306;5.634;2023-04-10T15:12:14;1.92;;;1.80;;
60318;SDS011;46163;52.306;5.634;2023-04-10T15:14:39;1.83;;;1.70;;
60318;SDS011;46163;52.306;5.634;2023-04-10T15:17:05;1.60;;;1.50;;
60318;SDS011;46163;52.306;5.634;2023-04-10T15:19:30;2.70;;;1.50;;
60318;SDS011;46163;52.306;5.634;2023-04-10T15:21:56;1.50;;;1.40;;
60318;SDS011;46163;52.306;5.634;2023-04-10T15:24:22;1.77;;;1.67;;
60318;SDS011;46163;52.306;5.634;2023-04-10T15:26:47;1.70;;;1.60;;
60318;SDS011;46163;52.306;5.634;2023-04-10T15:29:13;1.73;;;1.63;;
60318;SDS011;46163;52.306;5.634;2023-04-10T15:31:39;2.13;;;1.70;;
60318;SDS011;46163;52.306;5.634;2023-04-10T15:34:05;1.63;;;1.45;;
60318;SDS011;46163;52.306;5.634;2023-04-10T15:36:31;3.00;;;1.52;;
60318;SDS011;46163;52.306;5.634;2023-04-10T15:38:59;1.83;;;1.60;;
60318;SDS011;46163;52.306;5.634;2023-04-10T15:41:28;1.70;;;1.60;;